home support login
SAVED Flights LIVE Flights

G-BIWW(LFCJ 29042011) by JDS

 
Description

LFBG 291700Z AUTO 01005KT 320V040 9999 NSC 19/08 Q1003

1 x Circuit. Rev counter failed downwind. Fixed with brummie screwdriver.

Maximum Speed: 164 km/h
Maximum Altitude: 295 m
Total Time: 20 min, 10 sec
Total Distance: 12.8 km
Flight Date:
 
map controls

arrow Rotation, and 3D manoeuvring.
Alternatively, hold 'shift' when you click + drag the map

arrow Move forward/back/left/right.
Alternatively, click + drag the map

arrow Zoom in / out.
Alternatively, scroll your mouse wheel

Colour Flight path based on
Time
Speed
Altitude
START
END
Google Map Legend
Flight Detail
Normal (max. 1000 points)
High (max. 4000 points)
Comments
 
You need to login to post.
No account? Register for free now.


 
You need to login to post.
No account? Register for free now.